sensor_id;sensor_type;location;lat;lon;timestamp;P1;durP1;ratioP1;P2;durP2;ratioP2
14167;SDS011;7163;50.626;12.922;2023-04-15T00:02:00;6.87;;;4.20;;
14167;SDS011;7163;50.626;12.922;2023-04-15T00:07:23;6.23;;;4.70;;
14167;SDS011;7163;50.626;12.922;2023-04-15T00:12:24;5.67;;;4.37;;
14167;SDS011;7163;50.626;12.922;2023-04-15T00:17:25;5.00;;;3.67;;
14167;SDS011;7163;50.626;12.922;2023-04-15T00:22:26;5.13;;;3.67;;
14167;SDS011;7163;50.626;12.922;2023-04-15T00:27:27;5.27;;;3.70;;
14167;SDS011;7163;50.626;12.922;2023-04-15T00:32:27;4.67;;;3.63;;
14167;SDS011;7163;50.626;12.922;2023-04-15T00:37:28;4.97;;;3.23;;
14167;SDS011;7163;50.626;12.922;2023-04-15T00:42:28;4.67;;;3.63;;
14167;SDS011;7163;50.626;12.922;2023-04-15T00:47:29;3.97;;;3.07;;
14167;SDS011;7163;50.626;12.922;2023-04-15T00:52:30;4.87;;;3.17;;
14167;SDS011;7163;50.626;12.922;2023-04-15T00:57:31;4.23;;;3.07;;
14167;SDS011;7163;50.626;12.922;2023-04-15T01:02:32;4.13;;;3.20;;
14167;SDS011;7163;50.626;12.922;2023-04-15T01:07:33;5.03;;;3.63;;
14167;SDS011;7163;50.626;12.922;2023-04-15T01:12:34;5.03;;;3.70;;
14167;SDS011;7163;50.626;12.922;2023-04-15T01:17:35;5.37;;;3.97;;
14167;SDS011;7163;50.626;12.922;2023-04-15T01:22:36;5.60;;;4.03;;
14167;SDS011;7163;50.626;12.922;2023-04-15T01:27:40;5.53;;;3.93;;
14167;SDS011;7163;50.626;12.922;2023-04-15T01:32:41;5.07;;;3.70;;
14167;SDS011;7163;50.626;12.922;2023-04-15T01:37:42;5.63;;;3.97;;
14167;SDS011;7163;50.626;12.922;2023-04-15T01:42:42;5.63;;;4.20;;
14167;SDS011;7163;50.626;12.922;2023-04-15T01:47:43;5.70;;;3.80;;
14167;SDS011;7163;50.626;12.922;2023-04-15T01:52:43;4.83;;;3.60;;
14167;SDS011;7163;50.626;12.922;2023-04-15T01:57:43;5.30;;;3.73;;
14167;SDS011;7163;50.626;12.922;2023-04-15T02:02:44;5.40;;;3.83;;
14167;SDS011;7163;50.626;12.922;2023-04-15T02:07:44;5.40;;;4.07;;
14167;SDS011;7163;50.626;12.922;2023-04-15T02:12:45;6.10;;;3.90;;
14167;SDS011;7163;50.626;12.922;2023-04-15T02:17:45;7.00;;;4.80;;
14167;SDS011;7163;50.626;12.922;2023-04-15T02:22:49;6.33;;;4.43;;
14167;SDS011;7163;50.626;12.922;2023-04-15T02:27:50;4.63;;;3.30;;
14167;SDS011;7163;50.626;12.922;2023-04-15T02:32:50;4.00;;;3.23;;
14167;SDS011;7163;50.626;12.922;2023-04-15T02:37:51;4.90;;;3.53;;
14167;SDS011;7163;50.626;12.922;2023-04-15T02:42:51;5.50;;;3.63;;
14167;SDS011;7163;50.626;12.922;2023-04-15T02:47:52;3.80;;;3.00;;
14167;SDS011;7163;50.626;12.922;2023-04-15T02:52:52;4.40;;;3.27;;
14167;SDS011;7163;50.626;12.922;2023-04-15T02:57:53;4.93;;;3.47;;
14167;SDS011;7163;50.626;12.922;2023-04-15T03:02:57;5.40;;;3.63;;
14167;SDS011;7163;50.626;12.922;2023-04-15T03:08:00;4.43;;;3.20;;
14167;SDS011;7163;50.626;12.922;2023-04-15T03:13:00;3.17;;;2.63;;
14167;SDS011;7163;50.626;12.922;2023-04-15T03:18:00;3.57;;;2.87;;
14167;SDS011;7163;50.626;12.922;2023-04-15T03:23:01;3.07;;;2.77;;
14167;SDS011;7163;50.626;12.922;2023-04-15T03:28:02;3.10;;;2.80;;
14167;SDS011;7163;50.626;12.922;2023-04-15T03:33:02;2.73;;;2.47;;
14167;SDS011;7163;50.626;12.922;2023-04-15T03:38:03;2.57;;;2.37;;
14167;SDS011;7163;50.626;12.922;2023-04-15T03:43:03;2.60;;;2.40;;
14167;SDS011;7163;50.626;12.922;2023-04-15T03:48:03;3.70;;;2.83;;
14167;SDS011;7163;50.626;12.922;2023-04-15T03:53:04;3.53;;;2.97;;
14167;SDS011;7163;50.626;12.922;2023-04-15T03:58:05;6.17;;;3.70;;
14167;SDS011;7163;50.626;12.922;2023-04-15T04:03:06;9.10;;;4.90;;
14167;SDS011;7163;50.626;12.922;2023-04-15T04:08:07;9.53;;;4.80;;
14167;SDS011;7163;50.626;12.922;2023-04-15T04:13:07;5.27;;;3.63;;
14167;SDS011;7163;50.626;12.922;2023-04-15T04:18:08;4.27;;;3.20;;
14167;SDS011;7163;50.626;12.922;2023-04-15T04:23:08;7.57;;;3.77;;
14167;SDS011;7163;50.626;12.922;2023-04-15T04:28:09;4.90;;;3.67;;
14167;SDS011;7163;50.626;12.922;2023-04-15T04:33:10;4.57;;;3.47;;
14167;SDS011;7163;50.626;12.922;2023-04-15T04:38:11;13.50;;;8.53;;
14167;SDS011;7163;50.626;12.922;2023-04-15T04:43:11;17.33;;;9.70;;
14167;SDS011;7163;50.626;12.922;2023-04-15T04:48:12;22.20;;;16.10;;
14167;SDS011;7163;50.626;12.922;2023-04-15T04:53:12;10.73;;;7.37;;
14167;SDS011;7163;50.626;12.922;2023-04-15T04:58:13;11.03;;;7.87;;
14167;SDS011;7163;50.626;12.922;2023-04-15T05:03:14;11.23;;;7.17;;
14167;SDS011;7163;50.626;12.922;2023-04-15T05:08:15;6.83;;;4.60;;
14167;SDS011;7163;50.626;12.922;2023-04-15T05:13:15;7.83;;;5.47;;
14167;SDS011;7163;50.626;12.922;2023-04-15T05:18:16;8.80;;;6.10;;
14167;SDS011;7163;50.626;12.922;2023-04-15T05:23:17;7.87;;;4.73;;
14167;SDS011;7163;50.626;12.922;2023-04-15T05:28:18;6.77;;;5.20;;
14167;SDS011;7163;50.626;12.922;2023-04-15T05:33:18;5.53;;;4.03;;
14167;SDS011;7163;50.626;12.922;2023-04-15T05:38:19;10.13;;;6.03;;
14167;SDS011;7163;50.626;12.922;2023-04-15T05:43:19;5.50;;;3.90;;
14167;SDS011;7163;50.626;12.922;2023-04-15T05:48:20;7.80;;;4.47;;
14167;SDS011;7163;50.626;12.922;2023-04-15T05:53:20;24.07;;;12.17;;
14167;SDS011;7163;50.626;12.922;2023-04-15T05:58:20;13.97;;;9.30;;
14167;SDS011;7163;50.626;12.922;2023-04-15T06:03:21;13.30;;;9.37;;
14167;SDS011;7163;50.626;12.922;2023-04-15T06:08:22;11.27;;;6.23;;
14167;SDS011;7163;50.626;12.922;2023-04-15T06:13:22;8.17;;;4.40;;
14167;SDS011;7163;50.626;12.922;2023-04-15T06:18:22;6.63;;;4.80;;
14167;SDS011;7163;50.626;12.922;2023-04-15T06:23:23;10.80;;;7.30;;
14167;SDS011;7163;50.626;12.922;2023-04-15T06:28:23;70.70;;;34.20;;
14167;SDS011;7163;50.626;12.922;2023-04-15T06:33:24;14.80;;;9.40;;
14167;SDS011;7163;50.626;12.922;2023-04-15T06:38:26;3.33;;;2.50;;
14167;SDS011;7163;50.626;12.922;2023-04-15T06:43:26;20.87;;;12.30;;
14167;SDS011;7163;50.626;12.922;2023-04-15T06:48:27;9.50;;;6.40;;
14167;SDS011;7163;50.626;12.922;2023-04-15T06:53:27;7.30;;;5.20;;
14167;SDS011;7163;50.626;12.922;2023-04-15T06:58:28;6.43;;;4.57;;
14167;SDS011;7163;50.626;12.922;2023-04-15T07:03:28;7.23;;;4.90;;
14167;SDS011;7163;50.626;12.922;2023-04-15T07:08:29;6.50;;;4.93;;
14167;SDS011;7163;50.626;12.922;2023-04-15T07:13:30;10.77;;;7.80;;
14167;SDS011;7163;50.626;12.922;2023-04-15T07:18:31;12.57;;;8.70;;
14167;SDS011;7163;50.626;12.922;2023-04-15T07:23:31;7.77;;;5.63;;
14167;SDS011;7163;50.626;12.922;2023-04-15T07:28:32;6.33;;;3.97;;
14167;SDS011;7163;50.626;12.922;2023-04-15T07:33:32;4.40;;;3.57;;
14167;SDS011;7163;50.626;12.922;2023-04-15T07:38:33;4.00;;;3.50;;
14167;SDS011;7163;50.626;12.922;2023-04-15T07:43:33;4.20;;;3.40;;
14167;SDS011;7163;50.626;12.922;2023-04-15T07:48:34;6.33;;;4.57;;
14167;SDS011;7163;50.626;12.922;2023-04-15T07:53:35;10.00;;;7.00;;
14167;SDS011;7163;50.626;12.922;2023-04-15T07:58:36;5.57;;;4.43;;
14167;SDS011;7163;50.626;12.922;2023-04-15T08:03:36;10.57;;;7.03;;
14167;SDS011;7163;50.626;12.922;2023-04-15T08:08:37;93.33;;;45.60;;
14167;SDS011;7163;50.626;12.922;2023-04-15T08:13:37;28.37;;;16.13;;
14167;SDS011;7163;50.626;12.922;2023-04-15T08:18:38;7.10;;;4.97;;
14167;SDS011;7163;50.626;12.922;2023-04-15T08:23:38;13.77;;;6.87;;
14167;SDS011;7163;50.626;12.922;2023-04-15T08:28:40;4.80;;;3.97;;
14167;SDS011;7163;50.626;12.922;2023-04-15T08:33:41;7.23;;;5.37;;
14167;SDS011;7163;50.626;12.922;2023-04-15T08:38:43;10.13;;;6.67;;
14167;SDS011;7163;50.626;12.922;2023-04-15T08:43:45;7.60;;;5.50;;
14167;SDS011;7163;50.626;12.922;2023-04-15T08:48:51;18.70;;;11.53;;
14167;SDS011;7163;50.626;12.922;2023-04-15T08:53:56;9.47;;;6.60;;
14167;SDS011;7163;50.626;12.922;2023-04-15T08:58:57;4.27;;;3.43;;
14167;SDS011;7163;50.626;12.922;2023-04-15T09:03:59;7.27;;;5.43;;
14167;SDS011;7163;50.626;12.922;2023-04-15T09:09:02;5.33;;;3.80;;
14167;SDS011;7163;50.626;12.922;2023-04-15T09:14:02;4.47;;;3.80;;
14167;SDS011;7163;50.626;12.922;2023-04-15T09:19:19;5.97;;;3.90;;
14167;SDS011;7163;50.626;12.922;2023-04-15T09:24:20;12.17;;;6.73;;
14167;SDS011;7163;50.626;12.922;2023-04-15T09:29:23;5.00;;;4.00;;
14167;SDS011;7163;50.626;12.922;2023-04-15T09:34:34;4.53;;;3.90;;
14167;SDS011;7163;50.626;12.922;2023-04-15T09:39:50;5.27;;;4.77;;
14167;SDS011;7163;50.626;12.922;2023-04-15T09:44:51;6.03;;;4.37;;
14167;SDS011;7163;50.626;12.922;2023-04-15T09:49:56;4.77;;;3.80;;
14167;SDS011;7163;50.626;12.922;2023-04-15T09:54:58;6.60;;;4.80;;
14167;SDS011;7163;50.626;12.922;2023-04-15T09:59:59;5.03;;;4.07;;
14167;SDS011;7163;50.626;12.922;2023-04-15T10:05:00;5.07;;;4.40;;
14167;SDS011;7163;50.626;12.922;2023-04-15T10:10:01;6.13;;;4.80;;
14167;SDS011;7163;50.626;12.922;2023-04-15T10:15:04;5.77;;;4.57;;
14167;SDS011;7163;50.626;12.922;2023-04-15T10:20:05;5.73;;;4.33;;
14167;SDS011;7163;50.626;12.922;2023-04-15T10:25:08;5.67;;;4.57;;
14167;SDS011;7163;50.626;12.922;2023-04-15T10:30:10;11.73;;;7.77;;
14167;SDS011;7163;50.626;12.922;2023-04-15T10:35:13;4.33;;;3.93;;
14167;SDS011;7163;50.626;12.922;2023-04-15T10:40:27;6.47;;;4.67;;
14167;SDS011;7163;50.626;12.922;2023-04-15T10:45:35;4.17;;;3.63;;
14167;SDS011;7163;50.626;12.922;2023-04-15T10:50:37;4.30;;;3.80;;
14167;SDS011;7163;50.626;12.922;2023-04-15T10:55:38;10.13;;;6.77;;
14167;SDS011;7163;50.626;12.922;2023-04-15T11:00:38;3.90;;;3.40;;
14167;SDS011;7163;50.626;12.922;2023-04-15T11:05:52;5.90;;;4.50;;
14167;SDS011;7163;50.626;12.922;2023-04-15T11:10:52;3.27;;;2.97;;
14167;SDS011;7163;50.626;12.922;2023-04-15T11:15:56;7.27;;;5.20;;
14167;SDS011;7163;50.626;12.922;2023-04-15T11:20:59;5.47;;;4.33;;
14167;SDS011;7163;50.626;12.922;2023-04-15T11:26:02;3.77;;;3.47;;
14167;SDS011;7163;50.626;12.922;2023-04-15T11:31:15;3.30;;;3.00;;
14167;SDS011;7163;50.626;12.922;2023-04-15T11:36:18;3.90;;;3.50;;
14167;SDS011;7163;50.626;12.922;2023-04-15T11:41:20;5.27;;;4.20;;
14167;SDS011;7163;50.626;12.922;2023-04-15T11:46:27;6.07;;;4.33;;
14167;SDS011;7163;50.626;12.922;2023-04-15T11:51:31;5.50;;;4.83;;
14167;SDS011;7163;50.626;12.922;2023-04-15T11:56:32;3.00;;;2.70;;
14167;SDS011;7163;50.626;12.922;2023-04-15T12:01:36;4.53;;;4.07;;
14167;SDS011;7163;50.626;12.922;2023-04-15T12:06:45;3.50;;;3.20;;
14167;SDS011;7163;50.626;12.922;2023-04-15T12:11:47;3.93;;;3.53;;
14167;SDS011;7163;50.626;12.922;2023-04-15T12:16:49;6.17;;;3.47;;
14167;SDS011;7163;50.626;12.922;2023-04-15T12:21:58;3.00;;;2.70;;
14167;SDS011;7163;50.626;12.922;2023-04-15T12:27:06;3.80;;;3.27;;
14167;SDS011;7163;50.626;12.922;2023-04-15T12:32:11;4.33;;;3.50;;
14167;SDS011;7163;50.626;12.922;2023-04-15T12:37:12;5.63;;;3.90;;
14167;SDS011;7163;50.626;12.922;2023-04-15T12:42:13;6.83;;;4.20;;
14167;SDS011;7163;50.626;12.922;2023-04-15T12:47:15;4.47;;;4.03;;
14167;SDS011;7163;50.626;12.922;2023-04-15T12:52:15;5.50;;;4.60;;
14167;SDS011;7163;50.626;12.922;2023-04-15T12:57:15;7.33;;;5.47;;
14167;SDS011;7163;50.626;12.922;2023-04-15T13:02:16;5.40;;;4.40;;
14167;SDS011;7163;50.626;12.922;2023-04-15T13:07:16;4.80;;;4.30;;
14167;SDS011;7163;50.626;12.922;2023-04-15T13:12:17;5.93;;;4.53;;
14167;SDS011;7163;50.626;12.922;2023-04-15T13:17:18;5.17;;;4.17;;
14167;SDS011;7163;50.626;12.922;2023-04-15T13:22:20;19.57;;;11.93;;
14167;SDS011;7163;50.626;12.922;2023-04-15T13:27:20;15.20;;;9.40;;
14167;SDS011;7163;50.626;12.922;2023-04-15T13:32:21;6.40;;;4.93;;
14167;SDS011;7163;50.626;12.922;2023-04-15T13:37:28;7.67;;;5.60;;
14167;SDS011;7163;50.626;12.922;2023-04-15T13:42:29;11.00;;;7.57;;
14167;SDS011;7163;50.626;12.922;2023-04-15T13:47:29;19.90;;;12.97;;
14167;SDS011;7163;50.626;12.922;2023-04-15T13:52:30;11.20;;;7.07;;
14167;SDS011;7163;50.626;12.922;2023-04-15T13:57:30;14.93;;;9.23;;
14167;SDS011;7163;50.626;12.922;2023-04-15T14:02:33;19.27;;;12.43;;
14167;SDS011;7163;50.626;12.922;2023-04-15T14:07:34;20.53;;;13.40;;
14167;SDS011;7163;50.626;12.922;2023-04-15T14:12:34;13.07;;;9.77;;
14167;SDS011;7163;50.626;12.922;2023-04-15T14:17:35;11.10;;;8.17;;
14167;SDS011;7163;50.626;12.922;2023-04-15T14:22:35;13.30;;;9.40;;
14167;SDS011;7163;50.626;12.922;2023-04-15T14:27:36;15.30;;;11.13;;
14167;SDS011;7163;50.626;12.922;2023-04-15T14:32:36;8.63;;;6.73;;
14167;SDS011;7163;50.626;12.922;2023-04-15T14:37:37;8.53;;;6.50;;
14167;SDS011;7163;50.626;12.922;2023-04-15T14:42:37;10.43;;;7.87;;
14167;SDS011;7163;50.626;12.922;2023-04-15T14:47:37;11.33;;;7.67;;
14167;SDS011;7163;50.626;12.922;2023-04-15T14:52:38;11.03;;;8.47;;
14167;SDS011;7163;50.626;12.922;2023-04-15T14:57:39;7.43;;;6.30;;
14167;SDS011;7163;50.626;12.922;2023-04-15T15:02:40;12.57;;;8.00;;
14167;SDS011;7163;50.626;12.922;2023-04-15T15:07:41;9.60;;;7.77;;
14167;SDS011;7163;50.626;12.922;2023-04-15T15:12:41;9.17;;;6.73;;
14167;SDS011;7163;50.626;12.922;2023-04-15T15:17:42;8.80;;;6.87;;
14167;SDS011;7163;50.626;12.922;2023-04-15T15:22:42;11.57;;;8.57;;
14167;SDS011;7163;50.626;12.922;2023-04-15T15:27:43;9.73;;;7.00;;
14167;SDS011;7163;50.626;12.922;2023-04-15T15:32:43;9.83;;;7.90;;
14167;SDS011;7163;50.626;12.922;2023-04-15T15:37:44;10.93;;;8.20;;
14167;SDS011;7163;50.626;12.922;2023-04-15T15:42:44;11.23;;;8.70;;
14167;SDS011;7163;50.626;12.922;2023-04-15T15:47:48;11.47;;;8.73;;
14167;SDS011;7163;50.626;12.922;2023-04-15T15:52:49;14.83;;;9.30;;
14167;SDS011;7163;50.626;12.922;2023-04-15T15:57:49;15.67;;;10.27;;
14167;SDS011;7163;50.626;12.922;2023-04-15T16:02:53;17.20;;;10.77;;
14167;SDS011;7163;50.626;12.922;2023-04-15T16:07:56;14.03;;;9.80;;
14167;SDS011;7163;50.626;12.922;2023-04-15T16:12:57;17.27;;;10.83;;
14167;SDS011;7163;50.626;12.922;2023-04-15T16:17:57;15.33;;;11.10;;
14167;SDS011;7163;50.626;12.922;2023-04-15T16:22:58;15.80;;;10.93;;
14167;SDS011;7163;50.626;12.922;2023-04-15T16:27:58;14.97;;;11.57;;
14167;SDS011;7163;50.626;12.922;2023-04-15T16:32:59;18.43;;;13.47;;
14167;SDS011;7163;50.626;12.922;2023-04-15T16:37:59;17.13;;;12.43;;
14167;SDS011;7163;50.626;12.922;2023-04-15T16:43:01;18.40;;;14.23;;
14167;SDS011;7163;50.626;12.922;2023-04-15T16:48:02;20.30;;;14.17;;
14167;SDS011;7163;50.626;12.922;2023-04-15T16:53:02;19.80;;;14.30;;
14167;SDS011;7163;50.626;12.922;2023-04-15T16:58:02;21.33;;;15.17;;
14167;SDS011;7163;50.626;12.922;2023-04-15T17:03:04;28.73;;;17.87;;
14167;SDS011;7163;50.626;12.922;2023-04-15T17:08:05;21.13;;;14.70;;
14167;SDS011;7163;50.626;12.922;2023-04-15T17:13:05;24.23;;;16.43;;
14167;SDS011;7163;50.626;12.922;2023-04-15T17:18:06;26.13;;;18.07;;
14167;SDS011;7163;50.626;12.922;2023-04-15T17:23:07;24.37;;;17.47;;
14167;SDS011;7163;50.626;12.922;2023-04-15T17:28:08;23.13;;;15.97;;
14167;SDS011;7163;50.626;12.922;2023-04-15T17:33:08;25.30;;;16.27;;
14167;SDS011;7163;50.626;12.922;2023-04-15T17:38:09;24.63;;;15.60;;
14167;SDS011;7163;50.626;12.922;2023-04-15T17:43:09;26.57;;;17.17;;
14167;SDS011;7163;50.626;12.922;2023-04-15T17:48:09;26.40;;;17.43;;
14167;SDS011;7163;50.626;12.922;2023-04-15T17:53:10;24.97;;;17.80;;
14167;SDS011;7163;50.626;12.922;2023-04-15T17:58:10;25.23;;;17.00;;
14167;SDS011;7163;50.626;12.922;2023-04-15T18:03:11;28.10;;;19.23;;
14167;SDS011;7163;50.626;12.922;2023-04-15T18:08:11;31.60;;;21.47;;
14167;SDS011;7163;50.626;12.922;2023-04-15T18:13:12;36.20;;;24.67;;
14167;SDS011;7163;50.626;12.922;2023-04-15T18:18:12;46.50;;;31.23;;
14167;SDS011;7163;50.626;12.922;2023-04-15T18:23:13;44.20;;;28.20;;
14167;SDS011;7163;50.626;12.922;2023-04-15T18:28:13;35.77;;;23.33;;
14167;SDS011;7163;50.626;12.922;2023-04-15T18:33:14;41.90;;;27.07;;
14167;SDS011;7163;50.626;12.922;2023-04-15T18:38:15;39.33;;;23.90;;
14167;SDS011;7163;50.626;12.922;2023-04-15T18:43:16;37.03;;;23.20;;
14167;SDS011;7163;50.626;12.922;2023-04-15T18:48:16;34.77;;;22.77;;
14167;SDS011;7163;50.626;12.922;2023-04-15T18:53:16;41.73;;;25.80;;
14167;SDS011;7163;50.626;12.922;2023-04-15T18:58:17;40.50;;;26.17;;
14167;SDS011;7163;50.626;12.922;2023-04-15T19:03:17;40.77;;;25.73;;
14167;SDS011;7163;50.626;12.922;2023-04-15T19:08:17;41.17;;;25.60;;
14167;SDS011;7163;50.626;12.922;2023-04-15T19:13:18;42.67;;;25.57;;
14167;SDS011;7163;50.626;12.922;2023-04-15T19:18:21;56.53;;;35.70;;
14167;SDS011;7163;50.626;12.922;2023-04-15T19:23:22;41.97;;;25.43;;
14167;SDS011;7163;50.626;12.922;2023-04-15T19:28:22;57.50;;;32.40;;
14167;SDS011;7163;50.626;12.922;2023-04-15T19:33:24;46.70;;;27.83;;
14167;SDS011;7163;50.626;12.922;2023-04-15T19:38:30;43.93;;;26.60;;
14167;SDS011;7163;50.626;12.922;2023-04-15T19:43:31;48.77;;;28.00;;
14167;SDS011;7163;50.626;12.922;2023-04-15T19:48:31;57.63;;;35.33;;
14167;SDS011;7163;50.626;12.922;2023-04-15T19:53:32;49.67;;;30.00;;
14167;SDS011;7163;50.626;12.922;2023-04-15T19:58:32;48.90;;;30.77;;
14167;SDS011;7163;50.626;12.922;2023-04-15T20:03:33;52.90;;;33.10;;
14167;SDS011;7163;50.626;12.922;2023-04-15T20:08:33;60.27;;;36.70;;
14167;SDS011;7163;50.626;12.922;2023-04-15T20:13:33;61.03;;;35.90;;
14167;SDS011;7163;50.626;12.922;2023-04-15T20:18:34;64.33;;;35.57;;
14167;SDS011;7163;50.626;12.922;2023-04-15T20:23:34;48.80;;;31.83;;
14167;SDS011;7163;50.626;12.922;2023-04-15T20:28:35;61.70;;;36.07;;
14167;SDS011;7163;50.626;12.922;2023-04-15T20:33:38;63.20;;;37.67;;
14167;SDS011;7163;50.626;12.922;2023-04-15T20:38:39;63.73;;;38.57;;
14167;SDS011;7163;50.626;12.922;2023-04-15T20:43:39;57.27;;;35.73;;
14167;SDS011;7163;50.626;12.922;2023-04-15T20:48:40;53.23;;;31.97;;
14167;SDS011;7163;50.626;12.922;2023-04-15T20:53:40;56.77;;;34.03;;
14167;SDS011;7163;50.626;12.922;2023-04-15T20:58:41;51.90;;;33.20;;
14167;SDS011;7163;50.626;12.922;2023-04-15T21:03:41;55.03;;;34.00;;
14167;SDS011;7163;50.626;12.922;2023-04-15T21:08:42;49.47;;;31.00;;
14167;SDS011;7163;50.626;12.922;2023-04-15T21:13:42;58.03;;;35.50;;
14167;SDS011;7163;50.626;12.922;2023-04-15T21:18:45;54.47;;;32.47;;
14167;SDS011;7163;50.626;12.922;2023-04-15T21:23:45;53.17;;;31.47;;
14167;SDS011;7163;50.626;12.922;2023-04-15T21:28:46;46.47;;;29.90;;
14167;SDS011;7163;50.626;12.922;2023-04-15T21:33:46;48.93;;;28.70;;
14167;SDS011;7163;50.626;12.922;2023-04-15T21:38:46;58.07;;;34.20;;
14167;SDS011;7163;50.626;12.922;2023-04-15T21:43:47;50.40;;;29.20;;
14167;SDS011;7163;50.626;12.922;2023-04-15T21:48:47;49.67;;;27.23;;
14167;SDS011;7163;50.626;12.922;2023-04-15T21:53:48;54.20;;;26.47;;
14167;SDS011;7163;50.626;12.922;2023-04-15T21:58:49;46.23;;;26.10;;
14167;SDS011;7163;50.626;12.922;2023-04-15T22:03:50;39.77;;;23.23;;
14167;SDS011;7163;50.626;12.922;2023-04-15T22:08:50;39.03;;;23.53;;
14167;SDS011;7163;50.626;12.922;2023-04-15T22:13:51;45.70;;;25.37;;
14167;SDS011;7163;50.626;12.922;2023-04-15T22:18:53;48.53;;;27.90;;
14167;SDS011;7163;50.626;12.922;2023-04-15T22:23:53;46.63;;;26.10;;
14167;SDS011;7163;50.626;12.922;2023-04-15T22:28:54;48.53;;;27.97;;
14167;SDS011;7163;50.626;12.922;2023-04-15T22:33:55;54.17;;;30.63;;
14167;SDS011;7163;50.626;12.922;2023-04-15T22:38:55;57.43;;;32.67;;
14167;SDS011;7163;50.626;12.922;2023-04-15T22:43:56;62.47;;;32.00;;
14167;SDS011;7163;50.626;12.922;2023-04-15T22:48:56;56.50;;;31.80;;
14167;SDS011;7163;50.626;12.922;2023-04-15T22:53:57;45.87;;;26.83;;
14167;SDS011;7163;50.626;12.922;2023-04-15T22:58:57;47.20;;;29.07;;
14167;SDS011;7163;50.626;12.922;2023-04-15T23:03:57;49.53;;;27.90;;
14167;SDS011;7163;50.626;12.922;2023-04-15T23:09:05;53.33;;;28.43;;
14167;SDS011;7163;50.626;12.922;2023-04-15T23:14:06;43.00;;;23.30;;
14167;SDS011;7163;50.626;12.922;2023-04-15T23:19:06;33.47;;;19.83;;
14167;SDS011;7163;50.626;12.922;2023-04-15T23:24:07;34.63;;;20.87;;
14167;SDS011;7163;50.626;12.922;2023-04-15T23:29:10;33.07;;;20.03;;
14167;SDS011;7163;50.626;12.922;2023-04-15T23:34:11;39.53;;;21.80;;
14167;SDS011;7163;50.626;12.922;2023-04-15T23:39:15;44.27;;;26.70;;
14167;SDS011;7163;50.626;12.922;2023-04-15T23:44:15;42.27;;;24.27;;
14167;SDS011;7163;50.626;12.922;2023-04-15T23:49:19;35.57;;;21.43;;
14167;SDS011;7163;50.626;12.922;2023-04-15T23:54:19;38.43;;;22.77;;
14167;SDS011;7163;50.626;12.922;2023-04-15T23:59:20;42.93;;;23.77;;
